Marcel — ONDP — position and weather

sailwx.info

Track history (hours):
 
Tides and Currents Weather Stations Pressure Air Temp Water Temp Dewpoint Dewpoint Depression Visibility Wind Speed Wind Dir Waves Ship Positions

Marcel

Last reported at 2017-Aug-22 13:00 UTC. Time now 2017-Aug-22 13:06 UTC.
Position N 53°14' E 001°10'.

Length 88 m; draft 5.4 m.

Type: Cargo ship. MMSI: 205439000.

Date/timePositionNaut miles runAvg speedWind from/ knotsBaromVisibWave heightAir tempDewpointWater temp
2017-Aug-22 13:00N 53°14' E 001°10'611.9
2017-Aug-22 12:30N 53°09' E 001°17'611.5
2017-Aug-22 12:00N 53°05' E 001°24'510.8
2017-Aug-22 11:30N 53°01' E 001°30'510.4
2017-Aug-22 11:00N 52°57' E 001°35'5 9.7
2017-Aug-22 10:30N 52°54' E 001°41'4 8.7
2017-Aug-22 10:00N 52°51' E 001°46'39 7.5
2017-Aug-22 04:44N 52°12' E 001°53'210.9
2017-Aug-22 04:30N 52°09' E 001°53'611.4
2017-Aug-22 04:00N 52°04' E 001°51'611.9
2017-Aug-22 03:30N 51°58' E 001°49'611.7
2017-Aug-22 03:00N 51°52' E 001°49'611.6
2017-Aug-22 02:30N 51°46' E 001°49'611.4
2017-Aug-22 01:56N 51°40' E 001°50'23 9.6
2017-Aug-21 23:34N 51°19' E 002°06'110.1
2017-Aug-21 23:30N 51°18' E 002°06'510.7
2017-Aug-21 23:01N 51°14' E 002°02'611.2
2017-Aug-21 22:30N 51°10' E 001°55'135 8.6
2017-Aug-21 06:41N 50°04' W 001°11'612.5
2017-Aug-21 06:12N 50°03' W 001°20'212.0
2017-Aug-21 06:00N 50°02' W 001°24'611.6
2017-Aug-21 05:30N 50°01' W 001°32'510.9
2017-Aug-21 05:00N 49°60' W 001°41'5 9.9
2017-Aug-21 04:30N 49°58' W 001°48'  
2017-Aug-17 22:12N 40°35' W 009°48'3 8.8
2017-Aug-17 21:54N 40°32' W 009°48'7 8.8
2017-Aug-17 21:09N 40°26' W 009°48'2 9.1
2017-Aug-17 20:59N 40°24' W 009°49'4 9.4
2017-Aug-17 20:30N 40°20' W 009°49'5 9.3
2017-Aug-17 20:00N 40°15' W 009°49'4 8.7
2017-Aug-17 19:29N 40°11' W 009°49'4 8.7
2017-Aug-17 19:00N 40°06' W 009°49'4 8.7
2017-Aug-17 18:29N 40°02' W 009°49'6 8.8
2017-Aug-17 17:46N 39°56' W 009°50'2 8.7
2017-Aug-17 17:30N 39°53' W 009°50'32 8.7
2017-Aug-17 13:48N 39°21' W 009°49'6 8.8
2017-Aug-17 13:06N 39°15' W 009°50'1 8.5
2017-Aug-17 13:00N 39°14' W 009°50'4 8.5
2017-Aug-17 12:30N 39°10' W 009°50'4 8.7
2017-Aug-17 12:00N 39°06' W 009°50'4 8.5
2017-Aug-17 11:30N 39°01' W 009°50'4 8.8
2017-Aug-17 11:00N 38°57' W 009°50'4 8.9
2017-Aug-17 10:30N 38°53' W 009°50'4 8.7
2017-Aug-17 10:00N 38°48' W 009°50'4 8.7
2017-Aug-17 09:30N 38°44' W 009°50'4 8.7
2017-Aug-17 09:00N 38°40' W 009°49'4 8.5
2017-Aug-17 08:30N 38°35' W 009°48'4 8.6
2017-Aug-17 08:00N 38°31' W 009°46'4 8.4
2017-Aug-17 07:30N 38°27' W 009°45'4 8.7
2017-Aug-17 07:00N 38°23' W 009°44'93 8.0
2017-Aug-16 19:26N 36°53' W 009°18'4 8.5
2017-Aug-16 18:55N 36°49' W 009°14'4 8.1
2017-Aug-16 18:27N 36°47' W 009°10'7 8.1
2017-Aug-16 17:37N 36°44' W 009°03'2 7.8
2017-Aug-16 17:25N 36°44' W 009°01'3 8.2
2017-Aug-16 17:00N 36°42' W 008°57'4 8.1
2017-Aug-16 16:29N 36°41' W 008°52'167 8.8
2017-Aug-15 21:28N 35°59' W 005°31'  
Track history (hours):
 
Tides and Currents Weather Stations Pressure Air Temp Water Temp Dewpoint Dewpoint Depression Visibility Wind Speed Wind Dir Waves Ship Positions

Marcel

Last reported at 2017-Aug-22 13:00 UTC. Time now 2017-Aug-22 13:06 UTC.
Position N 53°14' E 001°10'.

Length 88 m; draft 5.4 m.

Type: Cargo ship. MMSI: 205439000.

Date/timePositionNaut miles runAvg speedWind from/ knotsBaromVisibWave heightAir tempDewpointWater temp
2017-Aug-22 13:00N 53°14' E 001°10'611.9
2017-Aug-22 12:30N 53°09' E 001°17'611.5
2017-Aug-22 12:00N 53°05' E 001°24'510.8
2017-Aug-22 11:30N 53°01' E 001°30'510.4
2017-Aug-22 11:00N 52°57' E 001°35'5 9.7
2017-Aug-22 10:30N 52°54' E 001°41'4 8.7
2017-Aug-22 10:00N 52°51' E 001°46'39 7.5
2017-Aug-22 04:44N 52°12' E 001°53'210.9
2017-Aug-22 04:30N 52°09' E 001°53'611.4
2017-Aug-22 04:00N 52°04' E 001°51'611.9
2017-Aug-22 03:30N 51°58' E 001°49'611.7
2017-Aug-22 03:00N 51°52' E 001°49'611.6
2017-Aug-22 02:30N 51°46' E 001°49'611.4
2017-Aug-22 01:56N 51°40' E 001°50'23 9.6
2017-Aug-21 23:34N 51°19' E 002°06'110.1
2017-Aug-21 23:30N 51°18' E 002°06'510.7
2017-Aug-21 23:01N 51°14' E 002°02'611.2
2017-Aug-21 22:30N 51°10' E 001°55'135 8.6
2017-Aug-21 06:41N 50°04' W 001°11'612.5
2017-Aug-21 06:12N 50°03' W 001°20'212.0
2017-Aug-21 06:00N 50°02' W 001°24'611.6
2017-Aug-21 05:30N 50°01' W 001°32'510.9
2017-Aug-21 05:00N 49°60' W 001°41'5 9.9
2017-Aug-21 04:30N 49°58' W 001°48'  
2017-Aug-17 22:12N 40°35' W 009°48'3 8.8
2017-Aug-17 21:54N 40°32' W 009°48'7 8.8
2017-Aug-17 21:09N 40°26' W 009°48'2 9.1
2017-Aug-17 20:59N 40°24' W 009°49'4 9.4
2017-Aug-17 20:30N 40°20' W 009°49'5 9.3
2017-Aug-17 20:00N 40°15' W 009°49'4 8.7
2017-Aug-17 19:29N 40°11' W 009°49'4 8.7
2017-Aug-17 19:00N 40°06' W 009°49'4 8.7
2017-Aug-17 18:29N 40°02' W 009°49'6 8.8
2017-Aug-17 17:46N 39°56' W 009°50'2 8.7
2017-Aug-17 17:30N 39°53' W 009°50'32 8.7
2017-Aug-17 13:48N 39°21' W 009°49'6 8.8
2017-Aug-17 13:06N 39°15' W 009°50'1 8.5
2017-Aug-17 13:00N 39°14' W 009°50'4 8.5
2017-Aug-17 12:30N 39°10' W 009°50'4 8.7
2017-Aug-17 12:00N 39°06' W 009°50'4 8.5
2017-Aug-17 11:30N 39°01' W 009°50'4 8.8
2017-Aug-17 11:00N 38°57' W 009°50'4 8.9
2017-Aug-17 10:30N 38°53' W 009°50'4 8.7
2017-Aug-17 10:00N 38°48' W 009°50'4 8.7
2017-Aug-17 09:30N 38°44' W 009°50'4 8.7
2017-Aug-17 09:00N 38°40' W 009°49'4 8.5
2017-Aug-17 08:30N 38°35' W 009°48'4 8.6
2017-Aug-17 08:00N 38°31' W 009°46'4 8.4
2017-Aug-17 07:30N 38°27' W 009°45'4 8.7
2017-Aug-17 07:00N 38°23' W 009°44'93 8.0
2017-Aug-16 19:26N 36°53' W 009°18'4 8.5
2017-Aug-16 18:55N 36°49' W 009°14'4 8.1
2017-Aug-16 18:27N 36°47' W 009°10'7 8.1
2017-Aug-16 17:37N 36°44' W 009°03'2 7.8
2017-Aug-16 17:25N 36°44' W 009°01'3 8.2
2017-Aug-16 17:00N 36°42' W 008°57'4 8.1
2017-Aug-16 16:29N 36°41' W 008°52'167 8.8
2017-Aug-15 21:28N 35°59' W 005°31'  

Dump ship's entire track history